Current | Forecast
Updated: 7:30 AM CEST on April 26, 2018
Observed at Osijek - Cepin, Hungary
Temperature 16°C
Humidity 68%
Dew Point 10°C
Wind SSE at 6 km/h
Pressure 1013 hPa (Rising)
Conditions Clear
Visibility -
UV N/A
Clouds
Yesterday's Maximum 29°C
Yesterday's Minimum 11°C approx.
Yesterday's Cooling Degree Days 3 approx.
Sunrise5:36 AM CEST
Sunset7:43 PM CEST
Moon Rise3:42 PM CEST
Moon Set4:14 AM CEST
Moon PhaseMoon Phase
Waxing Gibbous
Raw METARMETAR LDOS 260530Z 16003KT 130V200 CAVOK 16/10 Q1013


Monday
. High: 71° F.
Tuesday
. High: 78° F.
Wednesday
. High: 84° F.
Thursday
. High: 86° F.
Friday
. High: 68° F.
Saturday
. High: 73° F.
Sunday
. High: 80° F.
Monday
. High: 78° F.

Units: English | Metric

Find the Weather for any City, State or Zipcode, or Country:

U.S. State List | Severe Weather | Tropical Storms | Ski Conditions
United States | Canada | Central America | South America | Asia | Europe | Australia | Africa | Islands

Weather Underground

© Copyright 2018
The Weather Company, LLC